createdAt,value
2023-05-02T00:00:08.910Z,39.56
2023-05-02T00:01:08.954Z,40.03
2023-05-02T00:02:09.047Z,40.45
2023-05-02T00:03:09.151Z,39.81
2023-05-02T00:04:08.194Z,37.87
2023-05-02T00:05:09.121Z,39.96
2023-05-02T00:06:08.257Z,37.77
2023-05-02T00:07:08.276Z,39.55
2023-05-02T00:08:09.276Z,38.61
2023-05-02T00:09:09.286Z,37.89
2023-05-02T00:10:09.338Z,38.92
2023-05-02T00:11:09.338Z,40.53
2023-05-02T00:12:08.359Z,38.61
2023-05-02T00:13:08.405Z,39.73
2023-05-02T00:14:09.430Z,40.48
2023-05-02T00:15:09.567Z,40.36
2023-05-02T00:16:09.525Z,37.87
2023-05-02T00:17:08.574Z,38.86
2023-05-02T00:18:08.638Z,38.53
2023-05-02T00:19:08.683Z,38.44
2023-05-02T00:20:08.664Z,38.04
2023-05-02T00:21:09.786Z,38.82
2023-05-02T00:22:09.773Z,39.30
2023-05-02T00:23:09.804Z,37.84
2023-05-02T00:24:09.902Z,38.92
2023-05-02T00:25:09.810Z,39.36
2023-05-02T00:26:09.012Z,40.72
2023-05-02T00:27:09.968Z,38.85
2023-05-02T00:28:09.924Z,38.28
2023-05-02T00:29:08.938Z,39.03
2023-05-02T00:30:08.950Z,38.90
2023-05-02T00:31:10.135Z,37.79
2023-05-02T00:32:10.060Z,39.15
2023-05-02T00:33:10.082Z,37.76
2023-05-02T00:34:10.089Z,37.87
2023-05-02T00:35:10.133Z,39.40
2023-05-02T00:36:10.172Z,39.00
2023-05-02T00:37:10.252Z,40.21
2023-05-02T00:38:10.257Z,39.74
2023-05-02T00:39:10.279Z,39.40
2023-05-02T00:40:10.327Z,41.78
2023-05-02T00:41:10.300Z,40.15
2023-05-02T00:42:09.350Z,40.56
2023-05-02T00:43:10.415Z,37.91
2023-05-02T00:44:10.434Z,37.92
2023-05-02T00:45:10.466Z,40.03
2023-05-02T00:46:10.539Z,35.21
2023-05-02T00:47:10.588Z,39.61
2023-05-02T00:48:10.671Z,38.04
2023-05-02T00:49:09.680Z,37.64
2023-05-02T00:50:09.710Z,40.43
2023-05-02T00:51:09.713Z,37.76
2023-05-02T00:52:10.791Z,40.15
2023-05-02T00:53:09.759Z,39.43
2023-05-02T00:54:10.796Z,38.39
2023-05-02T00:55:09.804Z,40.43
2023-05-02T00:56:09.887Z,38.29
2023-05-02T00:57:09.907Z,37.96
2023-05-02T00:58:09.982Z,37.26
2023-05-02T00:59:10.045Z,39.05
2023-05-02T01:00:11.039Z,38.47
2023-05-02T01:01:10.025Z,40.07
2023-05-02T01:02:11.096Z,39.51
2023-05-02T01:03:10.189Z,38.66
2023-05-02T01:04:11.195Z,39.50
2023-05-02T01:05:11.333Z,38.00
2023-05-02T01:06:11.414Z,39.65
2023-05-02T01:07:11.282Z,38.00
2023-05-02T01:08:11.337Z,39.39
2023-05-02T01:09:10.330Z,40.74
2023-05-02T01:10:10.484Z,39.73
2023-05-02T01:11:11.452Z,39.70
2023-05-02T01:12:10.409Z,41.13
2023-05-02T01:13:10.457Z,39.41
2023-05-02T01:14:11.502Z,39.14
2023-05-02T01:15:11.538Z,40.77
2023-05-02T01:16:11.646Z,37.71
2023-05-02T01:17:11.587Z,39.06
2023-05-02T01:18:11.744Z,38.91
2023-05-02T01:19:10.747Z,37.76
2023-05-02T01:20:10.810Z,37.64
2023-05-02T01:21:11.787Z,39.04
2023-05-02T01:22:10.781Z,37.35
2023-05-02T01:23:10.819Z,38.75
2023-05-02T01:24:11.905Z,38.46
2023-05-02T01:25:11.913Z,39.41
2023-05-02T01:26:11.959Z,38.49
2023-05-02T01:27:11.129Z,39.78
2023-05-02T01:28:11.086Z,38.47
2023-05-02T01:29:12.149Z,42.37
2023-05-02T01:30:11.282Z,39.37
2023-05-02T01:31:12.219Z,38.24
2023-05-02T01:32:12.203Z,38.15
2023-05-02T01:33:11.301Z,40.53
2023-05-02T01:34:12.342Z,41.59
2023-05-02T01:35:12.306Z,39.75
2023-05-02T01:36:12.335Z,40.19
2023-05-02T01:37:11.390Z,39.73
2023-05-02T01:38:12.461Z,39.37
2023-05-02T01:39:11.482Z,39.03
2023-05-02T01:40:12.588Z,40.99
2023-05-02T01:41:12.626Z,39.44
2023-05-02T01:42:11.622Z,40.02
2023-05-02T01:43:12.789Z,39.04
2023-05-02T01:44:12.706Z,39.81
2023-05-02T01:45:13.825Z,39.67
2023-05-02T01:46:14.347Z,39.65
2023-05-02T01:47:13.047Z,41.51
2023-05-02T01:48:11.914Z,45.65
2023-05-02T01:49:13.124Z,42.63
2023-05-02T01:50:11.909Z,40.78
2023-05-02T01:51:12.914Z,39.06
2023-05-02T01:52:11.951Z,42.76
2023-05-02T01:53:12.934Z,38.17
2023-05-02T01:54:12.878Z,39.19
2023-05-02T01:55:12.937Z,40.81
2023-05-02T01:56:12.890Z,38.53
2023-05-02T01:57:12.897Z,39.82
2023-05-02T01:58:12.895Z,39.50
2023-05-02T01:59:13.001Z,40.60
2023-05-02T02:00:11.896Z,39.49
2023-05-02T02:01:11.846Z,38.34
2023-05-02T02:02:11.843Z,39.94
2023-05-02T02:03:12.873Z,39.74
2023-05-02T02:04:12.865Z,39.80
2023-05-02T02:05:11.883Z,39.14
2023-05-02T02:06:13.031Z,39.28
2023-05-02T02:07:12.790Z,38.97
2023-05-02T02:08:12.768Z,40.46
2023-05-02T02:09:12.768Z,39.34
2023-05-02T02:10:12.796Z,41.26
2023-05-02T02:11:12.738Z,39.86
2023-05-02T02:12:12.803Z,41.28
2023-05-02T02:13:12.769Z,41.84
2023-05-02T02:14:11.892Z,40.59
2023-05-02T02:15:12.772Z,40.12
2023-05-02T02:16:12.935Z,40.93
2023-05-02T02:17:12.902Z,38.70
2023-05-02T02:18:12.035Z,36.60
2023-05-02T02:19:12.972Z,38.05
2023-05-02T02:20:12.002Z,38.37
2023-05-02T02:21:13.112Z,37.77
2023-05-02T02:22:12.107Z,40.64
2023-05-02T02:23:13.159Z,39.01
2023-05-02T02:24:13.182Z,40.98
2023-05-02T02:25:12.234Z,40.24
2023-05-02T02:26:12.293Z,40.45
2023-05-02T02:27:12.325Z,38.35
2023-05-02T02:28:13.602Z,40.07
2023-05-02T02:29:12.409Z,37.67
2023-05-02T02:30:12.484Z,39.36
2023-05-02T02:31:12.513Z,38.52
2023-05-02T02:32:13.696Z,38.72
2023-05-02T02:33:12.637Z,37.70
2023-05-02T02:34:13.713Z,37.81
2023-05-02T02:35:13.740Z,39.04
2023-05-02T02:36:12.917Z,38.20
2023-05-02T02:37:13.777Z,40.15
2023-05-02T02:38:12.910Z,39.78
2023-05-02T02:39:13.857Z,40.18
2023-05-02T02:40:14.134Z,39.66
2023-05-02T02:41:12.889Z,41.63
2023-05-02T02:42:12.942Z,40.10
2023-05-02T02:43:13.978Z,39.89
2023-05-02T02:44:14.001Z,42.21
2023-05-02T02:45:14.088Z,39.76
2023-05-02T02:46:14.162Z,37.77
2023-05-02T02:47:14.148Z,41.08
2023-05-02T02:48:13.288Z,43.27
2023-05-02T02:49:13.224Z,40.58
2023-05-02T02:50:14.291Z,38.77
2023-05-02T02:51:13.317Z,41.59
2023-05-02T02:52:14.355Z,38.64
2023-05-02T02:53:13.407Z,38.35
2023-05-02T02:54:25.753Z,39.62
2023-05-02T02:55:14.457Z,39.92
2023-05-02T02:56:14.402Z,40.40
2023-05-02T02:57:14.397Z,40.52
2023-05-02T02:58:14.397Z,40.82
2023-05-02T02:59:14.594Z,40.43
2023-05-02T03:00:14.482Z,40.81
2023-05-02T03:01:14.491Z,41.52
2023-05-02T03:02:13.443Z,39.31
2023-05-02T03:03:14.500Z,40.01
2023-05-02T03:04:13.550Z,38.94
2023-05-02T03:05:14.362Z,42.85
2023-05-02T03:06:14.587Z,41.72
2023-05-02T03:07:14.554Z,39.59
2023-05-02T03:08:13.386Z,38.58
2023-05-02T03:09:14.326Z,40.59
2023-05-02T03:10:14.353Z,39.21
2023-05-02T03:11:14.364Z,38.48
2023-05-02T03:12:13.317Z,40.03
2023-05-02T03:13:13.296Z,37.71
2023-05-02T03:14:13.290Z,41.73
2023-05-02T03:15:14.388Z,40.70
2023-05-02T03:16:14.381Z,36.12
2023-05-02T03:17:14.333Z,40.97
2023-05-02T03:18:14.486Z,38.92
2023-05-02T03:19:14.287Z,41.50
2023-05-02T03:20:14.326Z,39.82
2023-05-02T03:21:14.359Z,40.97
2023-05-02T03:22:14.279Z,38.40
2023-05-02T03:23:14.664Z,39.97
2023-05-02T03:24:13.282Z,38.34
2023-05-02T03:25:14.331Z,38.84
2023-05-02T03:26:14.306Z,37.84
2023-05-02T03:27:14.321Z,40.15
2023-05-02T03:28:14.398Z,38.75
2023-05-02T03:29:14.440Z,40.13
2023-05-02T03:30:14.524Z,40.31
2023-05-02T03:31:14.629Z,41.25
2023-05-02T03:32:16.607Z,38.95
2023-05-02T03:33:14.645Z,45.15
2023-05-02T03:34:13.564Z,43.06
2023-05-02T03:35:14.577Z,43.92
2023-05-02T03:36:13.584Z,41.80
2023-05-02T03:37:14.508Z,39.91
2023-05-02T03:38:14.603Z,40.67
2023-05-02T03:39:13.505Z,41.03
2023-05-02T03:40:14.507Z,39.85
2023-05-02T03:41:14.499Z,42.26
2023-05-02T03:42:14.477Z,39.95
2023-05-02T03:43:14.490Z,41.78
2023-05-02T03:44:14.564Z,41.86
2023-05-02T03:45:13.556Z,42.44
2023-05-02T03:46:14.524Z,43.47
2023-05-02T03:47:14.532Z,42.12
2023-05-02T03:48:13.568Z,42.65
2023-05-02T03:49:14.446Z,43.54
2023-05-02T03:50:14.423Z,42.98
2023-05-02T03:51:14.410Z,41.68
2023-05-02T03:52:13.402Z,40.05
2023-05-02T03:53:13.386Z,42.96
2023-05-02T03:54:14.429Z,39.90
2023-05-02T03:55:14.372Z,40.32
2023-05-02T03:56:14.393Z,40.43
2023-05-02T03:57:14.368Z,40.08
2023-05-02T03:58:14.453Z,40.33
2023-05-02T03:59:14.371Z,42.11
2023-05-02T04:00:14.412Z,43.40
2023-05-02T04:01:14.425Z,39.91
2023-05-02T04:02:14.534Z,43.89
2023-05-02T04:03:14.603Z,41.94
2023-05-02T04:04:14.641Z,41.78
2023-05-02T04:05:13.675Z,40.95
2023-05-02T04:06:14.695Z,40.12
2023-05-02T04:07:13.717Z,39.72
2023-05-02T04:08:14.769Z,40.11
2023-05-02T04:09:14.773Z,40.99
2023-05-02T04:10:13.834Z,39.42
2023-05-02T04:11:14.907Z,39.67
2023-05-02T04:12:13.898Z,41.71
2023-05-02T04:13:14.957Z,41.89
2023-05-02T04:14:14.988Z,41.69
2023-05-02T04:15:15.026Z,38.81
2023-05-02T04:16:15.095Z,40.48
2023-05-02T04:17:14.190Z,38.67
2023-05-02T04:18:15.216Z,39.11
2023-05-02T04:19:15.242Z,41.52
2023-05-02T04:20:15.518Z,43.56
2023-05-02T04:21:14.409Z,40.02
2023-05-02T04:22:14.419Z,41.03
2023-05-02T04:23:14.464Z,40.25
2023-05-02T04:24:15.608Z,42.99
2023-05-02T04:25:15.526Z,43.08
2023-05-02T04:26:15.599Z,38.19
2023-05-02T04:27:15.467Z,40.56
2023-05-02T04:28:15.675Z,41.28
2023-05-02T04:29:15.745Z,42.90
2023-05-02T04:30:15.969Z,42.76
2023-05-02T04:31:15.158Z,39.74
2023-05-02T04:32:16.121Z,39.57
2023-05-02T04:33:16.006Z,39.07
2023-05-02T04:34:14.951Z,40.08
2023-05-02T04:35:16.053Z,39.37
2023-05-02T04:36:16.064Z,40.42
2023-05-02T04:37:16.269Z,40.18
2023-05-02T04:38:15.091Z,40.16
2023-05-02T04:39:16.121Z,41.06
2023-05-02T04:40:15.190Z,40.54
2023-05-02T04:41:15.386Z,39.60
2023-05-02T04:42:16.508Z,38.03
2023-05-02T04:43:15.404Z,38.91
2023-05-02T04:44:16.334Z,39.66
2023-05-02T04:45:16.398Z,40.66
2023-05-02T04:46:16.514Z,39.03
2023-05-02T04:47:16.546Z,41.46
2023-05-02T04:48:15.541Z,39.27
2023-05-02T04:49:16.758Z,40.49
2023-05-02T04:50:15.673Z,39.24
2023-05-02T04:51:17.250Z,39.68
2023-05-02T04:52:15.743Z,38.22
2023-05-02T04:53:15.858Z,40.22
2023-05-02T04:54:16.973Z,39.54
2023-05-02T04:55:16.875Z,40.64
2023-05-02T04:56:17.047Z,39.20
2023-05-02T04:57:16.991Z,41.64
2023-05-02T04:58:16.107Z,39.67
2023-05-02T04:59:17.217Z,39.17
2023-05-02T05:00:17.152Z,38.38
2023-05-02T05:01:17.249Z,41.07
2023-05-02T05:02:17.454Z,41.92
2023-05-02T05:03:17.318Z,42.75
2023-05-02T05:04:17.389Z,41.97
2023-05-02T05:05:17.421Z,43.85
2023-05-02T05:06:17.621Z,43.49
2023-05-02T05:07:16.673Z,41.65
2023-05-02T05:08:17.643Z,41.59
2023-05-02T05:09:16.570Z,42.96
2023-05-02T05:10:17.602Z,42.28
2023-05-02T05:11:17.676Z,42.49
2023-05-02T05:12:17.874Z,42.42
2023-05-02T05:13:18.597Z,40.20
2023-05-02T05:14:16.762Z,43.78
2023-05-02T05:15:16.815Z,44.50
2023-05-02T05:16:17.810Z,42.83
2023-05-02T05:17:16.847Z,42.26
2023-05-02T05:18:16.911Z,48.88
2023-05-02T05:19:17.097Z,45.55
2023-05-02T05:20:17.855Z,45.96
2023-05-02T05:21:16.936Z,48.41
2023-05-02T05:22:17.989Z,49.03
2023-05-02T05:23:17.177Z,47.58
2023-05-02T05:24:18.019Z,50.60
2023-05-02T05:25:17.412Z,49.43
2023-05-02T05:26:17.964Z,50.97
2023-05-02T05:27:16.960Z,54.14
2023-05-02T05:28:17.969Z,53.27
2023-05-02T05:29:18.614Z,54.25
2023-05-02T05:30:17.055Z,55.61
2023-05-02T05:31:18.035Z,57.12
2023-05-02T05:32:18.028Z,60.53
2023-05-02T05:33:17.159Z,68.86
2023-05-02T05:34:18.198Z,71.10
2023-05-02T05:35:18.518Z,74.00
2023-05-02T05:36:18.504Z,72.85
2023-05-02T05:37:18.607Z,78.48
2023-05-02T05:38:19.025Z,81.09
2023-05-02T05:39:24.074Z,86.87
2023-05-02T05:40:19.494Z,87.82
2023-05-02T05:41:18.832Z,89.52
2023-05-02T05:42:19.784Z,91.32
2023-05-02T05:43:17.697Z,94.86
2023-05-02T05:44:17.311Z,100.32
2023-05-02T05:45:18.618Z,106.03
2023-05-02T05:46:18.804Z,112.43
2023-05-02T05:47:18.318Z,110.49
2023-05-02T05:48:17.202Z,116.55
2023-05-02T05:49:17.460Z,113.50
2023-05-02T05:50:17.277Z,116.04
2023-05-02T05:51:17.458Z,126.80
2023-05-02T05:52:18.797Z,127.92
2023-05-02T05:53:18.233Z,131.75
2023-05-02T05:54:18.771Z,135.52
2023-05-02T05:55:18.543Z,139.93
2023-05-02T05:56:19.375Z,148.12
2023-05-02T05:57:17.216Z,152.57
2023-05-02T05:58:17.639Z,158.46
2023-05-02T05:59:17.510Z,159.02
2023-05-02T06:00:18.647Z,163.65
2023-05-02T06:01:18.899Z,185.63
2023-05-02T06:02:19.040Z,172.81
2023-05-02T06:03:18.891Z,182.39
2023-05-02T06:04:18.592Z,186.64
2023-05-02T06:05:17.558Z,187.38
2023-05-02T06:06:18.648Z,187.79
2023-05-02T06:07:18.657Z,201.64
2023-05-02T06:08:17.714Z,210.83
2023-05-02T06:09:18.760Z,217.02
2023-05-02T06:10:19.085Z,213.75
2023-05-02T06:11:18.154Z,215.43
2023-05-02T06:12:18.941Z,216.21
2023-05-02T06:13:17.983Z,220.71
2023-05-02T06:14:19.009Z,225.24
2023-05-02T06:15:19.085Z,226.31
2023-05-02T06:16:19.080Z,228.36
2023-05-02T06:17:18.111Z,233.35
2023-05-02T06:18:19.138Z,235.13
2023-05-02T06:19:25.138Z,241.17
2023-05-02T06:20:19.135Z,241.56
2023-05-02T06:21:18.116Z,241.65
2023-05-02T06:22:18.129Z,243.59
2023-05-02T06:23:19.111Z,248.89
2023-05-02T06:24:19.099Z,252.67
2023-05-02T06:25:18.104Z,244.47
2023-05-02T06:26:19.104Z,248.82
2023-05-02T06:27:18.082Z,245.18
2023-05-02T06:28:19.082Z,247.04
2023-05-02T06:29:18.079Z,249.45
2023-05-02T06:30:19.081Z,248.76
2023-05-02T06:31:19.086Z,250.00
2023-05-02T06:32:19.072Z,249.94
2023-05-02T06:33:19.036Z,244.03
2023-05-02T06:34:19.043Z,242.17
2023-05-02T06:35:19.040Z,244.96
2023-05-02T06:36:19.052Z,249.33
2023-05-02T06:37:18.067Z,244.71
2023-05-02T06:38:19.023Z,241.57
2023-05-02T06:39:18.013Z,245.60
2023-05-02T06:40:18.984Z,249.96
2023-05-02T06:41:18.999Z,248.17
2023-05-02T06:42:18.970Z,248.56
2023-05-02T06:43:17.961Z,250.00
2023-05-02T06:44:18.959Z,249.08
2023-05-02T06:45:18.958Z,248.27
2023-05-02T06:46:17.962Z,250.00
2023-05-02T06:47:18.991Z,245.81
2023-05-02T06:48:18.016Z,246.47
2023-05-02T06:49:17.931Z,247.07
2023-05-02T06:50:17.927Z,246.91
2023-05-02T06:51:19.283Z,249.14
2023-05-02T06:52:19.279Z,247.90
2023-05-02T06:53:17.896Z,242.66
2023-05-02T06:54:18.888Z,246.05
2023-05-02T06:55:17.878Z,244.54
2023-05-02T06:56:18.867Z,246.14
2023-05-02T06:57:19.286Z,250.84
2023-05-02T06:58:18.869Z,246.95
2023-05-02T06:59:18.854Z,248.32
2023-05-02T07:00:18.893Z,249.87
2023-05-02T07:01:17.861Z,248.89
2023-05-02T07:02:17.837Z,248.46
2023-05-02T07:03:18.838Z,245.74
2023-05-02T07:04:17.957Z,243.10
2023-05-02T07:05:17.833Z,243.75
2023-05-02T07:06:17.872Z,245.15
2023-05-02T07:07:18.979Z,248.14
2023-05-02T07:08:17.790Z,248.55
2023-05-02T07:09:18.795Z,247.72
2023-05-02T07:10:17.787Z,247.12
2023-05-02T07:11:18.774Z,249.87
2023-05-02T07:12:18.773Z,246.15
2023-05-02T07:13:18.748Z,246.91
2023-05-02T07:14:18.785Z,249.03
2023-05-02T07:15:18.775Z,248.92
2023-05-02T07:16:17.777Z,243.01
2023-05-02T07:17:18.758Z,242.52
2023-05-02T07:18:18.762Z,245.83
2023-05-02T07:19:18.746Z,245.65
2023-05-02T07:20:18.770Z,247.43
2023-05-02T07:21:18.700Z,245.32
2023-05-02T07:22:17.712Z,247.73
2023-05-02T07:23:17.687Z,250.18
2023-05-02T07:24:17.684Z,246.83
2023-05-02T07:25:17.691Z,245.60
2023-05-02T07:26:17.705Z,247.33
2023-05-02T07:27:17.709Z,244.44
2023-05-02T07:28:17.712Z,242.39
2023-05-02T07:29:17.715Z,244.44
2023-05-02T07:30:18.776Z,248.80
2023-05-02T07:31:18.998Z,247.75
2023-05-02T07:32:18.869Z,249.58
2023-05-02T07:33:18.817Z,247.76
2023-05-02T07:34:18.822Z,247.85
2023-05-02T07:35:17.838Z,247.26
2023-05-02T07:36:17.852Z,248.58
2023-05-02T07:37:18.859Z,246.84
2023-05-02T07:38:17.882Z,245.82
2023-05-02T07:39:17.891Z,245.91
2023-05-02T07:40:18.962Z,249.11
2023-05-02T07:41:17.956Z,247.91
2023-05-02T07:42:18.005Z,248.21
2023-05-02T07:43:19.048Z,246.48
2023-05-02T07:44:19.060Z,242.38
2023-05-02T07:45:18.110Z,244.89
2023-05-02T07:46:19.178Z,248.79
2023-05-02T07:47:19.296Z,247.57
2023-05-02T07:48:18.140Z,234.91
2023-05-02T07:49:19.141Z,233.08
2023-05-02T07:50:19.138Z,229.39
2023-05-02T07:51:19.143Z,234.20
2023-05-02T07:52:19.334Z,234.89
2023-05-02T07:53:19.162Z,237.99
2023-05-02T07:54:19.166Z,237.76
2023-05-02T07:55:19.198Z,239.70
2023-05-02T07:56:18.208Z,234.08
2023-05-02T07:57:18.246Z,233.69
2023-05-02T07:58:18.258Z,237.42
2023-05-02T07:59:19.248Z,237.84
2023-05-02T08:00:18.250Z,243.96
2023-05-02T08:01:18.285Z,245.96
2023-05-02T08:02:19.367Z,249.09
2023-05-02T08:03:18.367Z,241.86
2023-05-02T08:04:19.474Z,228.07
2023-05-02T08:05:18.552Z,205.97
2023-05-02T08:06:18.439Z,198.50
2023-05-02T08:07:19.370Z,149.66
2023-05-02T08:08:18.436Z,98.81
2023-05-02T08:09:18.439Z,132.75
2023-05-02T08:10:19.448Z,144.79
2023-05-02T08:11:20.455Z,147.45
2023-05-02T08:12:19.501Z,151.43
2023-05-02T08:13:19.461Z,152.11
2023-05-02T08:14:19.445Z,158.22
2023-05-02T08:15:19.508Z,166.88
2023-05-02T08:16:19.508Z,168.69
2023-05-02T08:17:18.444Z,172.44
2023-05-02T08:18:19.433Z,171.09
2023-05-02T08:19:19.435Z,178.54
2023-05-02T08:20:19.430Z,180.73
2023-05-02T08:21:18.424Z,180.27
2023-05-02T08:22:19.411Z,181.08
2023-05-02T08:23:18.386Z,182.54
2023-05-02T08:24:19.473Z,183.22
2023-05-02T08:25:18.388Z,181.96
2023-05-02T08:26:19.371Z,182.28
2023-05-02T08:27:19.391Z,185.12
2023-05-02T08:28:18.382Z,187.94
2023-05-02T08:29:19.364Z,186.91
2023-05-02T08:30:19.368Z,193.19
2023-05-02T08:31:18.404Z,191.20
2023-05-02T08:32:19.354Z,195.95
2023-05-02T08:33:19.338Z,193.99
2023-05-02T08:34:19.351Z,194.91
2023-05-02T08:35:18.312Z,196.46
2023-05-02T08:36:18.300Z,194.46
2023-05-02T08:37:19.314Z,197.39
2023-05-02T08:38:18.316Z,200.09
2023-05-02T08:39:19.269Z,196.73
2023-05-02T08:40:27.332Z,200.91
2023-05-02T08:41:19.284Z,201.60
2023-05-02T08:42:18.253Z,202.55
2023-05-02T08:43:19.331Z,203.14
2023-05-02T08:44:18.242Z,203.71
2023-05-02T08:45:19.245Z,210.54
2023-05-02T08:46:19.293Z,214.86
2023-05-02T08:47:19.396Z,215.30
2023-05-02T08:48:19.249Z,209.95
2023-05-02T08:49:19.217Z,208.87
2023-05-02T08:50:19.225Z,211.86
2023-05-02T08:52:18.229Z,220.87
2023-05-02T08:53:19.209Z,223.35
2023-05-02T08:54:18.182Z,230.86
2023-05-02T08:55:19.184Z,236.68
2023-05-02T08:56:19.216Z,243.04
2023-05-02T08:57:19.184Z,245.81
2023-05-02T08:58:19.306Z,237.86
2023-05-02T08:59:19.173Z,208.10
2023-05-02T09:00:18.147Z,206.15
2023-05-02T09:01:18.147Z,181.04
2023-05-02T09:02:19.143Z,149.36
2023-05-02T09:03:18.118Z,128.82
2023-05-02T09:04:19.149Z,110.42
2023-05-02T09:05:19.113Z,96.13
2023-05-02T09:06:18.134Z,79.84
2023-05-02T09:07:19.096Z,80.15
2023-05-02T09:08:18.098Z,70.90
2023-05-02T09:09:19.515Z,92.70
2023-05-02T09:10:18.088Z,110.86
2023-05-02T09:11:19.105Z,91.45
2023-05-02T09:12:18.085Z,89.74
2023-05-02T09:13:18.065Z,76.74
2023-05-02T09:14:18.051Z,90.11
2023-05-02T09:15:20.926Z,75.33
2023-05-02T09:16:18.098Z,78.56
2023-05-02T09:17:18.043Z,79.40
2023-05-02T09:18:19.027Z,92.12
2023-05-02T09:19:18.016Z,92.48
2023-05-02T09:20:19.042Z,93.46
2023-05-02T09:21:20.563Z,86.69
2023-05-02T09:22:19.022Z,87.06
2023-05-02T09:23:18.985Z,87.91
2023-05-02T09:24:19.001Z,72.29
2023-05-02T09:25:19.024Z,70.08
2023-05-02T09:26:19.007Z,86.95
2023-05-02T09:27:18.958Z,100.25
2023-05-02T09:28:19.001Z,85.30
2023-05-02T09:29:17.954Z,90.13
2023-05-02T09:30:17.939Z,75.49
2023-05-02T09:31:27.049Z,86.04
2023-05-02T09:32:19.081Z,86.26
2023-05-02T09:33:19.213Z,71.48
2023-05-02T09:34:17.951Z,58.90
2023-05-02T09:35:18.910Z,65.42
2023-05-02T09:36:18.937Z,63.80
2023-05-02T09:37:18.921Z,72.15
2023-05-02T09:38:17.921Z,75.39
2023-05-02T09:39:17.894Z,68.16
2023-05-02T09:40:17.889Z,64.08
2023-05-02T09:41:17.967Z,77.01
2023-05-02T09:42:18.893Z,79.33
2023-05-02T09:43:17.880Z,73.70
2023-05-02T09:44:18.906Z,75.86
2023-05-02T09:45:18.864Z,84.33
2023-05-02T09:46:18.979Z,75.58
2023-05-02T09:47:18.934Z,49.91
2023-05-02T09:48:18.352Z,26.03
2023-05-02T09:49:19.172Z,25.00
2023-05-02T09:50:19.027Z,25.00
2023-05-02T09:51:19.079Z,28.70
2023-05-02T09:52:19.126Z,25.00
2023-05-02T09:53:19.173Z,26.96
2023-05-02T09:54:19.254Z,24.31
2023-05-02T09:55:18.265Z,25.25
2023-05-02T09:56:18.589Z,25.00
2023-05-02T09:57:18.350Z,26.56
2023-05-02T09:58:19.390Z,25.00
2023-05-02T09:59:18.419Z,25.00
2023-05-02T10:00:19.499Z,26.41
2023-05-02T10:01:18.572Z,25.38
2023-05-02T10:02:18.578Z,25.00
2023-05-02T10:03:18.688Z,25.00
2023-05-02T10:04:18.733Z,27.14
2023-05-02T10:05:19.704Z,26.63
2023-05-02T10:06:18.770Z,25.49
2023-05-02T10:07:19.803Z,25.79
2023-05-02T10:08:19.844Z,25.53
2023-05-02T10:09:21.530Z,27.54
2023-05-02T10:10:19.868Z,25.00
2023-05-02T10:11:19.861Z,25.00
2023-05-02T10:12:18.869Z,25.01
2023-05-02T10:13:19.856Z,27.25
2023-05-02T10:14:19.845Z,25.00
2023-05-02T10:15:19.829Z,25.00
2023-05-02T10:16:19.864Z,25.77
2023-05-02T10:17:19.810Z,28.59
2023-05-02T10:18:19.807Z,30.32
2023-05-02T10:19:18.820Z,29.41
2023-05-02T10:20:18.789Z,27.24
2023-05-02T10:21:19.800Z,25.00
2023-05-02T10:22:18.785Z,25.86
2023-05-02T10:23:18.791Z,29.52
2023-05-02T10:24:18.760Z,30.52
2023-05-02T10:25:19.784Z,30.24
2023-05-02T10:26:19.747Z,26.62
2023-05-02T10:27:19.743Z,26.09
2023-05-02T10:28:19.749Z,25.00
2023-05-02T10:29:18.739Z,25.00
2023-05-02T10:30:19.732Z,27.83
2023-05-02T10:31:19.793Z,25.57
2023-05-02T10:32:19.730Z,26.99
2023-05-02T10:33:19.732Z,28.90
2023-05-02T10:34:18.707Z,30.86
2023-05-02T10:35:19.733Z,28.20
2023-05-02T10:36:19.694Z,29.69
2023-05-02T10:37:18.678Z,27.08
2023-05-02T10:38:20.734Z,25.14
2023-05-02T10:39:19.683Z,25.00
2023-05-02T10:40:19.675Z,26.01
2023-05-02T10:41:19.676Z,25.46
2023-05-02T10:42:19.654Z,26.33
2023-05-02T10:43:19.839Z,38.82
2023-05-02T10:44:19.639Z,46.58
2023-05-02T10:45:18.630Z,43.89
2023-05-02T10:46:18.706Z,45.07
2023-05-02T10:47:19.631Z,46.42
2023-05-02T10:48:18.631Z,45.36
2023-05-02T10:49:18.601Z,46.37
2023-05-02T10:50:18.601Z,46.83
2023-05-02T10:51:19.589Z,47.68
2023-05-02T10:52:19.582Z,49.35
2023-05-02T10:53:18.588Z,50.24
2023-05-02T10:54:19.591Z,48.80
2023-05-02T10:55:19.613Z,50.37
2023-05-02T10:56:19.558Z,51.14
2023-05-02T10:57:18.551Z,52.01
2023-05-02T10:58:19.545Z,53.88
2023-05-02T10:59:19.546Z,52.49
2023-05-02T11:00:19.541Z,54.49
2023-05-02T11:01:18.543Z,54.68
2023-05-02T11:02:19.529Z,55.23
2023-05-02T11:03:19.536Z,54.95
2023-05-02T11:04:19.526Z,55.39
2023-05-02T11:05:18.511Z,54.92
2023-05-02T11:06:18.518Z,55.38
2023-05-02T11:07:19.487Z,56.59
2023-05-02T11:08:21.336Z,56.50
2023-05-02T11:09:18.470Z,56.65
2023-05-02T11:10:18.465Z,56.72
2023-05-02T11:11:18.455Z,54.66
2023-05-02T11:12:18.449Z,56.14
2023-05-02T11:13:19.443Z,52.49
2023-05-02T11:14:18.596Z,59.05
2023-05-02T11:15:19.429Z,58.23
2023-05-02T11:16:19.507Z,69.11
2023-05-02T11:17:18.405Z,65.22
2023-05-02T11:18:19.414Z,63.48
2023-05-02T11:19:19.401Z,66.82
2023-05-02T11:20:19.417Z,68.90
2023-05-02T11:21:18.387Z,76.53
2023-05-02T11:22:19.370Z,78.45
2023-05-02T11:23:19.380Z,95.04
2023-05-02T11:24:19.357Z,87.14
2023-05-02T11:25:19.359Z,93.73
2023-05-02T11:26:19.345Z,99.37
2023-05-02T11:27:19.414Z,105.09
2023-05-02T11:28:19.347Z,108.91
2023-05-02T11:29:19.332Z,106.36
2023-05-02T11:30:19.329Z,107.26
2023-05-02T11:31:18.323Z,106.05
2023-05-02T11:32:19.359Z,107.89
2023-05-02T11:33:19.360Z,106.77
2023-05-02T11:34:19.305Z,107.61
2023-05-02T11:35:19.303Z,107.54
2023-05-02T11:36:19.326Z,111.72
2023-05-02T11:37:18.288Z,111.12
2023-05-02T11:38:19.307Z,109.07
2023-05-02T11:39:18.400Z,111.67
2023-05-02T11:40:19.338Z,115.79
2023-05-02T11:41:19.326Z,117.23
2023-05-02T11:42:19.347Z,121.48
2023-05-02T11:43:18.442Z,120.61
2023-05-02T11:44:18.396Z,123.22
2023-05-02T11:45:18.407Z,125.63
2023-05-02T11:46:19.468Z,124.78
2023-05-02T11:47:19.426Z,121.90
2023-05-02T11:48:18.446Z,123.03
2023-05-02T11:49:18.474Z,119.86
2023-05-02T11:50:19.488Z,119.64
2023-05-02T11:51:18.484Z,117.70
2023-05-02T11:52:18.509Z,119.56
2023-05-02T11:53:18.520Z,119.99
2023-05-02T11:54:19.529Z,120.58
2023-05-02T11:55:19.556Z,117.96
2023-05-02T11:56:18.610Z,118.81
2023-05-02T11:57:18.595Z,116.70
2023-05-02T11:58:18.612Z,117.06
2023-05-02T11:59:19.639Z,118.41
2023-05-02T12:00:18.650Z,117.94
2023-05-02T12:01:18.665Z,117.95
2023-05-02T12:02:19.712Z,116.37
2023-05-02T12:03:19.826Z,115.47
2023-05-02T12:04:18.709Z,114.18
2023-05-02T12:05:19.794Z,116.14
2023-05-02T12:06:19.273Z,116.99
2023-05-02T12:07:18.833Z,115.02
2023-05-02T12:08:18.851Z,115.12
2023-05-02T12:09:18.821Z,116.11
2023-05-02T12:10:18.842Z,117.82
2023-05-02T12:11:19.860Z,114.18
2023-05-02T12:12:19.880Z,117.51
2023-05-02T12:13:19.889Z,114.37
2023-05-02T12:14:18.924Z,114.60
2023-05-02T12:15:19.950Z,111.86
2023-05-02T12:16:19.094Z,112.56
2023-05-02T12:17:19.992Z,112.28
2023-05-02T12:18:21.404Z,110.47
2023-05-02T12:19:18.996Z,109.64
2023-05-02T12:20:19.986Z,109.06
2023-05-02T12:21:18.966Z,107.97
2023-05-02T12:22:19.968Z,107.79
2023-05-02T12:23:19.955Z,109.58
2023-05-02T12:24:18.994Z,110.30
2023-05-02T12:25:19.969Z,109.92
2023-05-02T12:26:19.945Z,109.34
2023-05-02T12:27:18.959Z,106.27
2023-05-02T12:28:19.926Z,104.61
2023-05-02T12:29:18.984Z,89.11
2023-05-02T12:30:19.908Z,87.97
2023-05-02T12:31:20.065Z,73.31
2023-05-02T12:32:18.902Z,77.05
2023-05-02T12:33:18.898Z,72.84
2023-05-02T12:34:19.916Z,71.60
2023-05-02T12:35:19.962Z,70.43
2023-05-02T12:36:19.930Z,82.40
2023-05-02T12:37:19.865Z,81.36
2023-05-02T12:38:18.857Z,63.62
2023-05-02T12:39:18.878Z,72.74
2023-05-02T12:40:19.898Z,75.30
2023-05-02T12:41:18.855Z,88.91
2023-05-02T12:42:18.859Z,103.78
2023-05-02T12:43:19.852Z,112.22
2023-05-02T12:44:18.852Z,114.75
2023-05-02T12:45:19.827Z,128.50